sensor_id;sensor_type;location;lat;lon;timestamp;P1;durP1;ratioP1;P2;durP2;ratioP2
68379;SDS011;57711;53.196;19.638;2023-02-26T00:00:09;7.70;;;4.20;;
68379;SDS011;57711;53.196;19.638;2023-02-26T00:03:00;7.60;;;4.30;;
68379;SDS011;57711;53.196;19.638;2023-02-26T00:05:27;5.40;;;2.90;;
68379;SDS011;57711;53.196;19.638;2023-02-26T00:07:55;6.10;;;3.30;;
68379;SDS011;57711;53.196;19.638;2023-02-26T00:10:22;5.40;;;3.50;;
68379;SDS011;57711;53.196;19.638;2023-02-26T00:12:49;4.90;;;2.80;;
68379;SDS011;57711;53.196;19.638;2023-02-26T00:15:16;6.00;;;3.40;;
68379;SDS011;57711;53.196;19.638;2023-02-26T00:17:48;4.70;;;3.10;;
68379;SDS011;57711;53.196;19.638;2023-02-26T00:20:23;9.80;;;4.30;;
68379;SDS011;57711;53.196;19.638;2023-02-26T00:22:52;10.00;;;5.50;;
68379;SDS011;57711;53.196;19.638;2023-02-26T00:25:19;10.60;;;4.60;;
68379;SDS011;57711;53.196;19.638;2023-02-26T00:27:46;8.10;;;3.70;;
68379;SDS011;57711;53.196;19.638;2023-02-26T00:30:14;8.90;;;4.50;;
68379;SDS011;57711;53.196;19.638;2023-02-26T00:32:41;15.80;;;6.60;;
68379;SDS011;57711;53.196;19.638;2023-02-26T00:35:11;7.90;;;3.40;;
68379;SDS011;57711;53.196;19.638;2023-02-26T00:43:01;11.10;;;4.40;;
68379;SDS011;57711;53.196;19.638;2023-02-26T00:45:30;7.90;;;4.00;;
68379;SDS011;57711;53.196;19.638;2023-02-26T00:50:55;7.30;;;3.30;;
68379;SDS011;57711;53.196;19.638;2023-02-26T00:53:31;10.00;;;4.30;;
68379;SDS011;57711;53.196;19.638;2023-02-26T00:56:02;7.40;;;3.40;;
68379;SDS011;57711;53.196;19.638;2023-02-26T00:58:29;6.50;;;2.80;;
68379;SDS011;57711;53.196;19.638;2023-02-26T01:00:56;4.60;;;2.90;;
68379;SDS011;57711;53.196;19.638;2023-02-26T01:03:25;7.10;;;2.90;;
68379;SDS011;57711;53.196;19.638;2023-02-26T01:05:53;6.30;;;2.60;;
68379;SDS011;57711;53.196;19.638;2023-02-26T01:10:53;4.00;;;1.90;;
68379;SDS011;57711;53.196;19.638;2023-02-26T01:13:20;4.90;;;2.00;;
68379;SDS011;57711;53.196;19.638;2023-02-26T01:15:49;5.40;;;2.40;;
68379;SDS011;57711;53.196;19.638;2023-02-26T01:18:23;4.30;;;2.00;;
68379;SDS011;57711;53.196;19.638;2023-02-26T01:21:02;5.30;;;2.80;;
68379;SDS011;57711;53.196;19.638;2023-02-26T01:23:32;3.00;;;1.80;;
68379;SDS011;57711;53.196;19.638;2023-02-26T01:26:06;3.30;;;2.00;;
68379;SDS011;57711;53.196;19.638;2023-02-26T01:28:41;5.50;;;1.80;;
68379;SDS011;57711;53.196;19.638;2023-02-26T01:31:13;5.60;;;2.60;;
68379;SDS011;57711;53.196;19.638;2023-02-26T01:33:52;5.40;;;2.20;;
68379;SDS011;57711;53.196;19.638;2023-02-26T01:36:26;5.50;;;2.70;;
68379;SDS011;57711;53.196;19.638;2023-02-26T01:41:56;8.20;;;3.40;;
68379;SDS011;57711;53.196;19.638;2023-02-26T01:44:30;2.30;;;1.50;;
68379;SDS011;57711;53.196;19.638;2023-02-26T01:47:14;4.30;;;2.30;;
68379;SDS011;57711;53.196;19.638;2023-02-26T01:49:46;3.70;;;1.90;;
68379;SDS011;57711;53.196;19.638;2023-02-26T01:55:20;5.70;;;2.50;;
68379;SDS011;57711;53.196;19.638;2023-02-26T01:57:50;6.60;;;3.00;;
68379;SDS011;57711;53.196;19.638;2023-02-26T02:00:19;6.90;;;2.20;;
68379;SDS011;57711;53.196;19.638;2023-02-26T02:02:48;5.80;;;2.30;;
68379;SDS011;57711;53.196;19.638;2023-02-26T02:05:21;9.80;;;2.30;;
68379;SDS011;57711;53.196;19.638;2023-02-26T02:07:54;6.30;;;1.80;;
68379;SDS011;57711;53.196;19.638;2023-02-26T02:10:23;5.20;;;2.30;;
68379;SDS011;57711;53.196;19.638;2023-02-26T02:18:17;1.90;;;1.40;;
68379;SDS011;57711;53.196;19.638;2023-02-26T02:23:26;4.40;;;1.80;;
68379;SDS011;57711;53.196;19.638;2023-02-26T02:29:19;2.60;;;1.40;;
68379;SDS011;57711;53.196;19.638;2023-02-26T02:40:11;2.30;;;0.90;;
68379;SDS011;57711;53.196;19.638;2023-02-26T02:42:54;2.70;;;1.00;;
68379;SDS011;57711;53.196;19.638;2023-02-26T02:48:23;1.80;;;1.20;;
68379;SDS011;57711;53.196;19.638;2023-02-26T02:50:56;3.70;;;1.20;;
68379;SDS011;57711;53.196;19.638;2023-02-26T02:53:31;2.50;;;1.00;;
68379;SDS011;57711;53.196;19.638;2023-02-26T02:56:07;3.10;;;1.00;;
68379;SDS011;57711;53.196;19.638;2023-02-26T02:58:43;2.70;;;1.10;;
68379;SDS011;57711;53.196;19.638;2023-02-26T03:01:16;5.60;;;0.80;;
68379;SDS011;57711;53.196;19.638;2023-02-26T03:04:20;1.40;;;0.70;;
68379;SDS011;57711;53.196;19.638;2023-02-26T03:06:41;2.70;;;0.70;;
68379;SDS011;57711;53.196;19.638;2023-02-26T03:09:11;2.10;;;0.80;;
68379;SDS011;57711;53.196;19.638;2023-02-26T03:11:39;1.20;;;0.60;;
68379;SDS011;57711;53.196;19.638;2023-02-26T03:14:07;1.90;;;0.70;;
68379;SDS011;57711;53.196;19.638;2023-02-26T03:22:01;1.50;;;0.60;;
68379;SDS011;57711;53.196;19.638;2023-02-26T03:24:50;2.10;;;0.90;;
68379;SDS011;57711;53.196;19.638;2023-02-26T03:27:30;2.00;;;0.80;;
68379;SDS011;57711;53.196;19.638;2023-02-26T03:30:05;1.40;;;0.80;;
68379;SDS011;57711;53.196;19.638;2023-02-26T03:32:42;2.30;;;0.90;;
68379;SDS011;57711;53.196;19.638;2023-02-26T03:35:34;2.50;;;1.00;;
68379;SDS011;57711;53.196;19.638;2023-02-26T03:38:20;3.50;;;1.30;;
68379;SDS011;57711;53.196;19.638;2023-02-26T03:44:05;2.50;;;1.00;;
68379;SDS011;57711;53.196;19.638;2023-02-26T03:46:38;3.40;;;1.00;;
68379;SDS011;57711;53.196;19.638;2023-02-26T03:49:11;3.40;;;1.10;;
68379;SDS011;57711;53.196;19.638;2023-02-26T03:51:42;0.90;;;0.70;;
68379;SDS011;57711;53.196;19.638;2023-02-26T03:54:42;2.80;;;0.90;;
68379;SDS011;57711;53.196;19.638;2023-02-26T03:57:33;1.60;;;0.70;;
68379;SDS011;57711;53.196;19.638;2023-02-26T04:00:27;4.70;;;1.10;;
68379;SDS011;57711;53.196;19.638;2023-02-26T04:02:59;2.90;;;1.30;;
68379;SDS011;57711;53.196;19.638;2023-02-26T04:05:37;2.10;;;1.00;;
68379;SDS011;57711;53.196;19.638;2023-02-26T04:08:08;4.20;;;0.90;;
68379;SDS011;57711;53.196;19.638;2023-02-26T04:10:41;1.50;;;0.90;;
68379;SDS011;57711;53.196;19.638;2023-02-26T04:13:11;2.10;;;1.00;;
68379;SDS011;57711;53.196;19.638;2023-02-26T04:15:39;1.90;;;0.90;;
68379;SDS011;57711;53.196;19.638;2023-02-26T04:18:07;2.10;;;1.00;;
68379;SDS011;57711;53.196;19.638;2023-02-26T04:20:34;1.40;;;0.90;;
68379;SDS011;57711;53.196;19.638;2023-02-26T04:23:01;2.70;;;1.20;;
68379;SDS011;57711;53.196;19.638;2023-02-26T04:25:29;2.40;;;1.20;;
68379;SDS011;57711;53.196;19.638;2023-02-26T04:27:57;2.10;;;1.00;;
68379;SDS011;57711;53.196;19.638;2023-02-26T04:30:25;5.00;;;1.70;;
68379;SDS011;57711;53.196;19.638;2023-02-26T04:32:52;2.30;;;1.10;;
68379;SDS011;57711;53.196;19.638;2023-02-26T04:35:19;2.60;;;1.20;;
68379;SDS011;57711;53.196;19.638;2023-02-26T04:37:46;4.00;;;2.10;;
68379;SDS011;57711;53.196;19.638;2023-02-26T04:40:14;5.30;;;2.10;;
68379;SDS011;57711;53.196;19.638;2023-02-26T04:42:41;6.50;;;1.90;;
68379;SDS011;57711;53.196;19.638;2023-02-26T04:45:11;5.70;;;2.50;;
68379;SDS011;57711;53.196;19.638;2023-02-26T04:47:38;3.20;;;1.80;;
68379;SDS011;57711;53.196;19.638;2023-02-26T04:50:05;4.50;;;1.80;;
68379;SDS011;57711;53.196;19.638;2023-02-26T04:52:33;3.80;;;2.00;;
68379;SDS011;57711;53.196;19.638;2023-02-26T04:55:01;2.70;;;1.40;;
68379;SDS011;57711;53.196;19.638;2023-02-26T04:57:28;3.50;;;1.50;;
68379;SDS011;57711;53.196;19.638;2023-02-26T04:59:55;2.60;;;1.10;;
68379;SDS011;57711;53.196;19.638;2023-02-26T05:02:26;2.90;;;1.40;;
68379;SDS011;57711;53.196;19.638;2023-02-26T05:04:53;1.80;;;1.00;;
68379;SDS011;57711;53.196;19.638;2023-02-26T05:07:20;3.60;;;1.30;;
68379;SDS011;57711;53.196;19.638;2023-02-26T05:09:48;4.70;;;2.30;;
68379;SDS011;57711;53.196;19.638;2023-02-26T05:12:15;4.70;;;1.80;;
68379;SDS011;57711;53.196;19.638;2023-02-26T05:14:42;4.70;;;1.60;;
68379;SDS011;57711;53.196;19.638;2023-02-26T05:17:10;3.50;;;1.80;;
68379;SDS011;57711;53.196;19.638;2023-02-26T05:19:37;2.60;;;1.40;;
68379;SDS011;57711;53.196;19.638;2023-02-26T05:22:04;4.60;;;1.80;;
68379;SDS011;57711;53.196;19.638;2023-02-26T05:24:32;21.70;;;7.40;;
68379;SDS011;57711;53.196;19.638;2023-02-26T05:26:59;41.00;;;15.50;;
68379;SDS011;57711;53.196;19.638;2023-02-26T05:29:28;46.30;;;19.90;;
68379;SDS011;57711;53.196;19.638;2023-02-26T05:32:01;47.80;;;25.60;;
68379;SDS011;57711;53.196;19.638;2023-02-26T05:34:29;43.80;;;24.40;;
68379;SDS011;57711;53.196;19.638;2023-02-26T05:36:56;23.30;;;11.70;;
68379;SDS011;57711;53.196;19.638;2023-02-26T05:39:23;10.90;;;5.30;;
68379;SDS011;57711;53.196;19.638;2023-02-26T05:41:50;14.90;;;6.90;;
68379;SDS011;57711;53.196;19.638;2023-02-26T05:44:18;23.70;;;9.60;;
68379;SDS011;57711;53.196;19.638;2023-02-26T05:46:45;17.20;;;6.80;;
68379;SDS011;57711;53.196;19.638;2023-02-26T05:49:13;16.30;;;7.80;;
68379;SDS011;57711;53.196;19.638;2023-02-26T05:51:40;18.70;;;8.00;;
68379;SDS011;57711;53.196;19.638;2023-02-26T05:54:09;11.10;;;5.60;;
68379;SDS011;57711;53.196;19.638;2023-02-26T05:56:37;17.00;;;6.60;;
68379;SDS011;57711;53.196;19.638;2023-02-26T05:59:04;23.90;;;10.90;;
68379;SDS011;57711;53.196;19.638;2023-02-26T06:01:31;31.50;;;15.00;;
68379;SDS011;57711;53.196;19.638;2023-02-26T06:03:58;27.80;;;13.90;;
68379;SDS011;57711;53.196;19.638;2023-02-26T06:06:26;26.80;;;10.00;;
68379;SDS011;57711;53.196;19.638;2023-02-26T06:08:53;38.40;;;16.10;;
68379;SDS011;57711;53.196;19.638;2023-02-26T06:11:20;35.00;;;14.60;;
68379;SDS011;57711;53.196;19.638;2023-02-26T06:13:48;15.50;;;7.00;;
68379;SDS011;57711;53.196;19.638;2023-02-26T06:16:15;19.50;;;8.70;;
68379;SDS011;57711;53.196;19.638;2023-02-26T06:18:42;14.60;;;7.10;;
68379;SDS011;57711;53.196;19.638;2023-02-26T06:21:10;26.70;;;14.90;;
68379;SDS011;57711;53.196;19.638;2023-02-26T06:23:37;28.20;;;12.50;;
68379;SDS011;57711;53.196;19.638;2023-02-26T06:26:04;18.90;;;9.00;;
68379;SDS011;57711;53.196;19.638;2023-02-26T06:28:32;29.60;;;13.70;;
68379;SDS011;57711;53.196;19.638;2023-02-26T06:30:59;64.20;;;25.70;;
68379;SDS011;57711;53.196;19.638;2023-02-26T06:33:26;36.00;;;14.20;;
68379;SDS011;57711;53.196;19.638;2023-02-26T06:35:53;29.70;;;11.80;;
68379;SDS011;57711;53.196;19.638;2023-02-26T06:38:21;29.00;;;11.20;;
68379;SDS011;57711;53.196;19.638;2023-02-26T06:40:48;43.00;;;14.60;;
68379;SDS011;57711;53.196;19.638;2023-02-26T06:43:16;45.30;;;15.80;;
68379;SDS011;57711;53.196;19.638;2023-02-26T06:45:43;34.20;;;13.40;;
68379;SDS011;57711;53.196;19.638;2023-02-26T06:48:10;43.30;;;17.40;;
68379;SDS011;57711;53.196;19.638;2023-02-26T06:50:38;51.30;;;23.50;;
68379;SDS011;57711;53.196;19.638;2023-02-26T06:53:05;39.50;;;18.80;;
68379;SDS011;57711;53.196;19.638;2023-02-26T06:55:32;54.30;;;27.80;;
68379;SDS011;57711;53.196;19.638;2023-02-26T06:57:59;34.80;;;17.60;;
68379;SDS011;57711;53.196;19.638;2023-02-26T07:00:26;22.10;;;10.30;;
68379;SDS011;57711;53.196;19.638;2023-02-26T07:02:54;27.30;;;12.60;;
68379;SDS011;57711;53.196;19.638;2023-02-26T07:05:21;28.40;;;15.80;;
68379;SDS011;57711;53.196;19.638;2023-02-26T07:07:49;58.30;;;25.30;;
68379;SDS011;57711;53.196;19.638;2023-02-26T07:10:16;42.90;;;20.70;;
68379;SDS011;57711;53.196;19.638;2023-02-26T07:12:43;53.10;;;23.50;;
68379;SDS011;57711;53.196;19.638;2023-02-26T07:15:10;65.60;;;27.70;;
68379;SDS011;57711;53.196;19.638;2023-02-26T07:17:37;103.90;;;44.30;;
68379;SDS011;57711;53.196;19.638;2023-02-26T07:20:05;56.10;;;25.50;;
68379;SDS011;57711;53.196;19.638;2023-02-26T07:22:36;49.20;;;20.00;;
68379;SDS011;57711;53.196;19.638;2023-02-26T07:25:03;234.20;;;88.00;;
68379;SDS011;57711;53.196;19.638;2023-02-26T07:27:31;34.80;;;15.70;;
68379;SDS011;57711;53.196;19.638;2023-02-26T07:29:59;122.10;;;46.90;;
68379;SDS011;57711;53.196;19.638;2023-02-26T07:32:26;80.90;;;28.20;;
68379;SDS011;57711;53.196;19.638;2023-02-26T07:34:53;114.20;;;37.70;;
68379;SDS011;57711;53.196;19.638;2023-02-26T07:37:21;29.70;;;12.20;;
68379;SDS011;57711;53.196;19.638;2023-02-26T07:39:48;32.90;;;12.70;;
68379;SDS011;57711;53.196;19.638;2023-02-26T07:42:15;23.70;;;10.80;;
68379;SDS011;57711;53.196;19.638;2023-02-26T07:44:43;35.90;;;14.90;;
68379;SDS011;57711;53.196;19.638;2023-02-26T07:47:10;21.70;;;8.80;;
68379;SDS011;57711;53.196;19.638;2023-02-26T07:49:37;23.10;;;9.70;;
68379;SDS011;57711;53.196;19.638;2023-02-26T07:52:05;36.20;;;15.90;;
68379;SDS011;57711;53.196;19.638;2023-02-26T07:54:34;16.70;;;7.10;;
68379;SDS011;57711;53.196;19.638;2023-02-26T07:57:02;30.00;;;11.00;;
68379;SDS011;57711;53.196;19.638;2023-02-26T07:59:30;40.20;;;12.30;;
68379;SDS011;57711;53.196;19.638;2023-02-26T08:01:57;299.20;;;78.40;;
68379;SDS011;57711;53.196;19.638;2023-02-26T08:04:24;85.30;;;24.80;;
68379;SDS011;57711;53.196;19.638;2023-02-26T08:06:51;48.00;;;13.30;;
68379;SDS011;57711;53.196;19.638;2023-02-26T08:09:20;71.60;;;22.00;;
68379;SDS011;57711;53.196;19.638;2023-02-26T08:11:48;26.70;;;9.50;;
68379;SDS011;57711;53.196;19.638;2023-02-26T08:14:15;29.70;;;12.80;;
68379;SDS011;57711;53.196;19.638;2023-02-26T08:16:42;26.10;;;9.10;;
68379;SDS011;57711;53.196;19.638;2023-02-26T08:19:09;47.30;;;18.90;;
68379;SDS011;57711;53.196;19.638;2023-02-26T08:21:36;63.80;;;27.30;;
68379;SDS011;57711;53.196;19.638;2023-02-26T08:24:03;66.00;;;26.50;;
68379;SDS011;57711;53.196;19.638;2023-02-26T08:26:33;69.30;;;30.80;;
68379;SDS011;57711;53.196;19.638;2023-02-26T08:29:02;27.40;;;13.90;;
68379;SDS011;57711;53.196;19.638;2023-02-26T08:31:30;54.60;;;25.90;;
68379;SDS011;57711;53.196;19.638;2023-02-26T08:33:58;21.70;;;9.90;;
68379;SDS011;57711;53.196;19.638;2023-02-26T08:36:25;59.50;;;27.30;;
68379;SDS011;57711;53.196;19.638;2023-02-26T08:38:52;22.40;;;9.10;;
68379;SDS011;57711;53.196;19.638;2023-02-26T08:41:19;25.40;;;13.00;;
68379;SDS011;57711;53.196;19.638;2023-02-26T08:43:47;91.90;;;44.90;;
68379;SDS011;57711;53.196;19.638;2023-02-26T08:46:14;57.30;;;27.20;;
68379;SDS011;57711;53.196;19.638;2023-02-26T08:48:41;109.20;;;46.30;;
68379;SDS011;57711;53.196;19.638;2023-02-26T08:51:09;142.40;;;58.50;;
68379;SDS011;57711;53.196;19.638;2023-02-26T08:53:36;92.70;;;39.00;;
68379;SDS011;57711;53.196;19.638;2023-02-26T08:56:05;127.10;;;57.10;;
68379;SDS011;57711;53.196;19.638;2023-02-26T08:58:33;101.60;;;44.30;;
68379;SDS011;57711;53.196;19.638;2023-02-26T09:01:00;138.20;;;67.20;;
68379;SDS011;57711;53.196;19.638;2023-02-26T09:03:27;92.90;;;52.30;;
68379;SDS011;57711;53.196;19.638;2023-02-26T09:05:54;28.70;;;15.00;;
68379;SDS011;57711;53.196;19.638;2023-02-26T09:08:21;62.70;;;32.50;;
68379;SDS011;57711;53.196;19.638;2023-02-26T09:10:49;92.30;;;51.20;;
68379;SDS011;57711;53.196;19.638;2023-02-26T09:13:16;67.70;;;36.80;;
68379;SDS011;57711;53.196;19.638;2023-02-26T09:15:43;40.80;;;21.90;;
68379;SDS011;57711;53.196;19.638;2023-02-26T09:18:10;26.40;;;14.10;;
68379;SDS011;57711;53.196;19.638;2023-02-26T09:20:41;45.30;;;24.30;;
68379;SDS011;57711;53.196;19.638;2023-02-26T09:23:09;46.50;;;24.10;;
68379;SDS011;57711;53.196;19.638;2023-02-26T09:25:37;55.20;;;28.00;;
68379;SDS011;57711;53.196;19.638;2023-02-26T09:28:05;50.50;;;27.80;;
68379;SDS011;57711;53.196;19.638;2023-02-26T09:30:32;26.20;;;14.10;;
68379;SDS011;57711;53.196;19.638;2023-02-26T09:32:59;54.20;;;29.40;;
68379;SDS011;57711;53.196;19.638;2023-02-26T09:35:26;62.90;;;35.30;;
68379;SDS011;57711;53.196;19.638;2023-02-26T09:37:54;40.00;;;22.00;;
68379;SDS011;57711;53.196;19.638;2023-02-26T09:40:39;24.90;;;14.70;;
68379;SDS011;57711;53.196;19.638;2023-02-26T09:49:12;40.30;;;21.00;;
68379;SDS011;57711;53.196;19.638;2023-02-26T09:51:42;12.60;;;6.20;;
68379;SDS011;57711;53.196;19.638;2023-02-26T09:54:15;18.00;;;8.80;;
68379;SDS011;57711;53.196;19.638;2023-02-26T09:56:46;35.20;;;15.10;;
68379;SDS011;57711;53.196;19.638;2023-02-26T09:59:15;18.50;;;9.40;;
68379;SDS011;57711;53.196;19.638;2023-02-26T10:07:24;23.80;;;9.40;;
68379;SDS011;57711;53.196;19.638;2023-02-26T10:10:10;27.50;;;13.40;;
68379;SDS011;57711;53.196;19.638;2023-02-26T10:12:45;28.60;;;9.20;;
68379;SDS011;57711;53.196;19.638;2023-02-26T10:15:22;46.50;;;18.20;;
68379;SDS011;57711;53.196;19.638;2023-02-26T10:18:09;18.80;;;8.60;;
68379;SDS011;57711;53.196;19.638;2023-02-26T10:20:49;27.70;;;13.40;;
68379;SDS011;57711;53.196;19.638;2023-02-26T10:23:27;28.40;;;12.50;;
68379;SDS011;57711;53.196;19.638;2023-02-26T10:26:03;127.50;;;39.80;;
68379;SDS011;57711;53.196;19.638;2023-02-26T10:39:38;127.40;;;33.70;;
68379;SDS011;57711;53.196;19.638;2023-02-26T10:42:59;79.40;;;21.60;;
68379;SDS011;57711;53.196;19.638;2023-02-26T10:50:36;52.70;;;18.60;;
68379;SDS011;57711;53.196;19.638;2023-02-26T10:53:08;18.60;;;6.00;;
68379;SDS011;57711;53.196;19.638;2023-02-26T10:55:40;26.50;;;8.20;;
68379;SDS011;57711;53.196;19.638;2023-02-26T10:58:14;19.90;;;6.20;;
68379;SDS011;57711;53.196;19.638;2023-02-26T11:00:44;38.90;;;9.80;;
68379;SDS011;57711;53.196;19.638;2023-02-26T11:03:15;26.90;;;10.70;;
68379;SDS011;57711;53.196;19.638;2023-02-26T11:05:45;21.30;;;8.30;;
68379;SDS011;57711;53.196;19.638;2023-02-26T11:08:18;40.90;;;17.20;;
68379;SDS011;57711;53.196;19.638;2023-02-26T11:10:50;25.20;;;10.00;;
68379;SDS011;57711;53.196;19.638;2023-02-26T11:13:23;14.90;;;5.80;;
68379;SDS011;57711;53.196;19.638;2023-02-26T11:15:54;22.10;;;12.40;;
68379;SDS011;57711;53.196;19.638;2023-02-26T11:18:25;18.10;;;9.30;;
68379;SDS011;57711;53.196;19.638;2023-02-26T11:20:57;15.40;;;7.40;;
68379;SDS011;57711;53.196;19.638;2023-02-26T11:23:26;23.20;;;8.10;;
68379;SDS011;57711;53.196;19.638;2023-02-26T11:25:57;22.30;;;9.10;;
68379;SDS011;57711;53.196;19.638;2023-02-26T11:28:32;22.10;;;7.40;;
68379;SDS011;57711;53.196;19.638;2023-02-26T11:31:05;36.40;;;14.60;;
68379;SDS011;57711;53.196;19.638;2023-02-26T11:33:39;29.00;;;11.80;;
68379;SDS011;57711;53.196;19.638;2023-02-26T11:36:14;20.50;;;8.20;;
68379;SDS011;57711;53.196;19.638;2023-02-26T11:38:44;29.50;;;13.10;;
68379;SDS011;57711;53.196;19.638;2023-02-26T11:41:17;35.10;;;12.30;;
68379;SDS011;57711;53.196;19.638;2023-02-26T11:43:46;33.30;;;11.30;;
68379;SDS011;57711;53.196;19.638;2023-02-26T11:46:26;15.20;;;5.60;;
68379;SDS011;57711;53.196;19.638;2023-02-26T11:48:54;20.00;;;9.40;;
68379;SDS011;57711;53.196;19.638;2023-02-26T11:51:27;14.90;;;5.80;;
68379;SDS011;57711;53.196;19.638;2023-02-26T11:53:56;30.40;;;13.00;;
68379;SDS011;57711;53.196;19.638;2023-02-26T11:58:59;39.90;;;17.10;;
68379;SDS011;57711;53.196;19.638;2023-02-26T12:01:34;17.40;;;8.60;;
68379;SDS011;57711;53.196;19.638;2023-02-26T12:04:02;21.30;;;10.30;;
68379;SDS011;57711;53.196;19.638;2023-02-26T12:06:29;32.50;;;10.90;;
68379;SDS011;57711;53.196;19.638;2023-02-26T12:08:57;29.80;;;12.10;;
68379;SDS011;57711;53.196;19.638;2023-02-26T12:14:20;26.10;;;10.50;;
68379;SDS011;57711;53.196;19.638;2023-02-26T12:40:05;30.20;;;10.70;;
68379;SDS011;57711;53.196;19.638;2023-02-26T12:42:47;26.10;;;9.60;;
68379;SDS011;57711;53.196;19.638;2023-02-26T12:48:50;19.90;;;5.80;;
68379;SDS011;57711;53.196;19.638;2023-02-26T12:54:20;33.60;;;14.20;;
68379;SDS011;57711;53.196;19.638;2023-02-26T12:57:01;25.60;;;8.30;;
68379;SDS011;57711;53.196;19.638;2023-02-26T13:00:12;13.10;;;5.00;;
68379;SDS011;57711;53.196;19.638;2023-02-26T13:05:36;16.40;;;7.50;;
68379;SDS011;57711;53.196;19.638;2023-02-26T13:08:25;16.30;;;7.70;;
68379;SDS011;57711;53.196;19.638;2023-02-26T13:21:45;12.40;;;4.90;;
68379;SDS011;57711;53.196;19.638;2023-02-26T13:24:27;25.30;;;9.70;;
68379;SDS011;57711;53.196;19.638;2023-02-26T13:27:07;23.30;;;7.40;;
68379;SDS011;57711;53.196;19.638;2023-02-26T13:29:40;25.60;;;8.70;;
68379;SDS011;57711;53.196;19.638;2023-02-26T13:32:15;51.90;;;12.10;;
68379;SDS011;57711;53.196;19.638;2023-02-26T13:34:57;73.20;;;17.90;;
68379;SDS011;57711;53.196;19.638;2023-02-26T13:37:40;64.00;;;17.20;;
68379;SDS011;57711;53.196;19.638;2023-02-26T13:46:03;75.70;;;21.90;;
68379;SDS011;57711;53.196;19.638;2023-02-26T13:51:38;33.90;;;14.60;;
68379;SDS011;57711;53.196;19.638;2023-02-26T13:59:36;31.00;;;6.90;;
68379;SDS011;57711;53.196;19.638;2023-02-26T14:04:53;41.80;;;12.70;;
68379;SDS011;57711;53.196;19.638;2023-02-26T14:10:28;32.70;;;8.00;;
68379;SDS011;57711;53.196;19.638;2023-02-26T14:13:09;32.10;;;8.60;;
68379;SDS011;57711;53.196;19.638;2023-02-26T14:15:42;32.60;;;7.60;;
68379;SDS011;57711;53.196;19.638;2023-02-26T14:18:19;28.50;;;8.10;;
68379;SDS011;57711;53.196;19.638;2023-02-26T14:21:06;29.10;;;9.00;;
68379;SDS011;57711;53.196;19.638;2023-02-26T14:23:55;20.10;;;4.50;;
68379;SDS011;57711;53.196;19.638;2023-02-26T14:26:25;32.70;;;8.40;;
68379;SDS011;57711;53.196;19.638;2023-02-26T14:31:49;34.80;;;10.60;;
68379;SDS011;57711;53.196;19.638;2023-02-26T14:34:33;51.30;;;18.30;;
68379;SDS011;57711;53.196;19.638;2023-02-26T14:37:07;48.80;;;14.70;;
68379;SDS011;57711;53.196;19.638;2023-02-26T14:39:46;17.70;;;6.60;;
68379;SDS011;57711;53.196;19.638;2023-02-26T14:42:18;15.40;;;6.00;;
68379;SDS011;57711;53.196;19.638;2023-02-26T14:44:50;9.40;;;3.90;;
68379;SDS011;57711;53.196;19.638;2023-02-26T14:47:35;28.30;;;9.90;;
68379;SDS011;57711;53.196;19.638;2023-02-26T14:50:04;39.40;;;11.50;;
68379;SDS011;57711;53.196;19.638;2023-02-26T14:57:45;31.60;;;10.00;;
68379;SDS011;57711;53.196;19.638;2023-02-26T15:03:55;141.10;;;45.10;;
68379;SDS011;57711;53.196;19.638;2023-02-26T15:12:26;100.10;;;32.80;;
68379;SDS011;57711;53.196;19.638;2023-02-26T15:15:26;180.50;;;59.20;;
68379;SDS011;57711;53.196;19.638;2023-02-26T15:23:33;142.80;;;52.50;;
68379;SDS011;57711;53.196;19.638;2023-02-26T15:26:28;93.80;;;36.40;;
68379;SDS011;57711;53.196;19.638;2023-02-26T15:31:35;55.00;;;21.80;;
68379;SDS011;57711;53.196;19.638;2023-02-26T15:34:10;51.20;;;18.80;;
68379;SDS011;57711;53.196;19.638;2023-02-26T15:36:39;36.90;;;14.40;;
68379;SDS011;57711;53.196;19.638;2023-02-26T15:39:12;48.70;;;19.50;;
68379;SDS011;57711;53.196;19.638;2023-02-26T15:41:41;33.30;;;12.90;;
68379;SDS011;57711;53.196;19.638;2023-02-26T15:44:17;45.50;;;18.50;;
68379;SDS011;57711;53.196;19.638;2023-02-26T15:46:57;31.10;;;11.90;;
68379;SDS011;57711;53.196;19.638;2023-02-26T15:49:28;31.10;;;12.10;;
68379;SDS011;57711;53.196;19.638;2023-02-26T15:51:59;22.80;;;9.30;;
68379;SDS011;57711;53.196;19.638;2023-02-26T15:54:37;43.90;;;17.20;;
68379;SDS011;57711;53.196;19.638;2023-02-26T15:57:09;41.70;;;13.10;;
68379;SDS011;57711;53.196;19.638;2023-02-26T15:59:39;36.20;;;12.90;;
68379;SDS011;57711;53.196;19.638;2023-02-26T16:02:11;33.60;;;13.00;;
68379;SDS011;57711;53.196;19.638;2023-02-26T16:04:40;37.80;;;15.40;;
68379;SDS011;57711;53.196;19.638;2023-02-26T16:07:08;35.30;;;16.80;;
68379;SDS011;57711;53.196;19.638;2023-02-26T16:09:38;52.90;;;25.90;;
68379;SDS011;57711;53.196;19.638;2023-02-26T16:12:34;49.60;;;21.10;;
68379;SDS011;57711;53.196;19.638;2023-02-26T16:14:59;64.20;;;27.70;;
68379;SDS011;57711;53.196;19.638;2023-02-26T16:17:31;92.50;;;37.50;;
68379;SDS011;57711;53.196;19.638;2023-02-26T16:20:05;54.60;;;28.20;;
68379;SDS011;57711;53.196;19.638;2023-02-26T16:22:45;32.30;;;16.10;;
68379;SDS011;57711;53.196;19.638;2023-02-26T16:27:59;18.00;;;7.10;;
68379;SDS011;57711;53.196;19.638;2023-02-26T16:30:35;19.00;;;7.30;;
68379;SDS011;57711;53.196;19.638;2023-02-26T16:33:08;14.50;;;6.20;;
68379;SDS011;57711;53.196;19.638;2023-02-26T16:35:41;19.20;;;7.70;;
68379;SDS011;57711;53.196;19.638;2023-02-26T16:38:11;34.10;;;15.50;;
68379;SDS011;57711;53.196;19.638;2023-02-26T16:40:45;25.10;;;11.10;;
68379;SDS011;57711;53.196;19.638;2023-02-26T16:45:50;30.00;;;10.60;;
68379;SDS011;57711;53.196;19.638;2023-02-26T16:48:27;15.00;;;6.40;;
68379;SDS011;57711;53.196;19.638;2023-02-26T16:50:58;19.60;;;9.50;;
68379;SDS011;57711;53.196;19.638;2023-02-26T16:53:31;64.20;;;29.00;;
68379;SDS011;57711;53.196;19.638;2023-02-26T16:56:10;49.70;;;22.10;;
68379;SDS011;57711;53.196;19.638;2023-02-26T16:58:46;38.50;;;15.10;;
68379;SDS011;57711;53.196;19.638;2023-02-26T17:01:20;62.90;;;27.40;;
68379;SDS011;57711;53.196;19.638;2023-02-26T17:03:49;97.80;;;36.20;;
68379;SDS011;57711;53.196;19.638;2023-02-26T17:06:26;60.40;;;22.40;;
68379;SDS011;57711;53.196;19.638;2023-02-26T17:08:57;73.70;;;26.20;;
68379;SDS011;57711;53.196;19.638;2023-02-26T17:11:27;47.60;;;22.40;;
68379;SDS011;57711;53.196;19.638;2023-02-26T17:14:03;109.50;;;51.40;;
68379;SDS011;57711;53.196;19.638;2023-02-26T17:16:48;87.60;;;38.40;;
68379;SDS011;57711;53.196;19.638;2023-02-26T17:19:17;104.40;;;43.50;;
68379;SDS011;57711;53.196;19.638;2023-02-26T17:24:36;60.40;;;31.90;;
68379;SDS011;57711;53.196;19.638;2023-02-26T17:27:16;67.80;;;33.40;;
68379;SDS011;57711;53.196;19.638;2023-02-26T17:29:49;48.00;;;23.30;;
68379;SDS011;57711;53.196;19.638;2023-02-26T17:32:18;50.20;;;27.10;;
68379;SDS011;57711;53.196;19.638;2023-02-26T17:34:49;29.20;;;15.80;;
68379;SDS011;57711;53.196;19.638;2023-02-26T17:37:17;25.10;;;12.20;;
68379;SDS011;57711;53.196;19.638;2023-02-26T17:39:45;51.50;;;24.80;;
68379;SDS011;57711;53.196;19.638;2023-02-26T17:42:16;68.30;;;29.10;;